createdAt,value
2018-05-15T00:01:50.499Z,11.80
2018-05-15T00:04:16.962Z,11.70
2018-05-15T00:06:43.456Z,11.60
2018-05-15T00:09:09.972Z,11.60
2018-05-15T00:11:37.141Z,11.60
2018-05-15T00:14:06.123Z,11.60
2018-05-15T00:16:33.338Z,11.60
2018-05-15T00:18:59.838Z,11.60
2018-05-15T00:21:26.277Z,11.60
2018-05-15T00:23:52.858Z,11.50
2018-05-15T00:26:19.305Z,11.50
2018-05-15T00:28:46.518Z,11.50
2018-05-15T00:31:12.958Z,11.50
2018-05-15T00:33:39.486Z,11.60
2018-05-15T00:36:06.006Z,11.70
2018-05-15T00:38:32.521Z,11.70
2018-05-15T00:40:59.154Z,11.70
2018-05-15T00:43:25.614Z,11.70
2018-05-15T00:45:52.075Z,11.60
2018-05-15T00:48:18.527Z,11.60
2018-05-15T00:50:45.721Z,11.70
2018-05-15T00:53:12.208Z,11.70
2018-05-15T00:55:44.411Z,11.80
2018-05-15T00:58:10.969Z,11.80
2018-05-15T01:00:37.482Z,11.70
2018-05-15T01:03:04.073Z,11.80
2018-05-15T01:05:30.612Z,11.70
2018-05-15T01:07:57.804Z,11.70
2018-05-15T01:10:24.340Z,11.70
2018-05-15T01:12:50.799Z,11.70
2018-05-15T01:15:17.412Z,11.70
2018-05-15T01:17:43.901Z,11.70
2018-05-15T01:20:11.114Z,11.70
2018-05-15T01:22:37.632Z,11.70
2018-05-15T01:25:04.101Z,11.70
2018-05-15T01:27:30.573Z,11.60
2018-05-15T01:29:57.947Z,11.50
2018-05-15T01:32:24.457Z,11.50
2018-05-15T01:34:51.724Z,11.40
2018-05-15T01:37:18.237Z,11.40
2018-05-15T01:39:45.571Z,11.40
2018-05-15T01:42:12.025Z,11.40
2018-05-15T01:44:38.649Z,11.40
2018-05-15T01:47:05.982Z,11.40
2018-05-15T01:49:32.446Z,11.40
2018-05-15T01:51:59.637Z,11.30
2018-05-15T01:54:26.157Z,11.30
2018-05-15T01:56:52.626Z,11.30
2018-05-15T01:59:19.150Z,11.30
2018-05-15T02:01:45.627Z,11.30
2018-05-15T02:04:12.219Z,11.10
2018-05-15T02:06:38.698Z,11.10
2018-05-15T02:09:05.261Z,11.10
2018-05-15T02:11:32.539Z,11.00
2018-05-15T02:13:58.982Z,11.00
2018-05-15T02:16:25.505Z,11.00
2018-05-15T02:18:51.937Z,11.00
2018-05-15T02:21:18.527Z,11.00
2018-05-15T02:23:44.937Z,11.00
2018-05-15T02:26:11.443Z,11.00
2018-05-15T02:28:37.928Z,11.00
2018-05-15T02:31:04.411Z,11.00
2018-05-15T02:33:30.910Z,10.90
2018-05-15T02:35:58.182Z,11.00
2018-05-15T02:38:24.713Z,11.00
2018-05-15T02:40:51.196Z,10.90
2018-05-15T02:43:17.714Z,10.90
2018-05-15T02:45:44.152Z,10.90
2018-05-15T02:48:10.717Z,10.90
2018-05-15T02:50:37.189Z,10.90
2018-05-15T02:53:03.717Z,11.00
2018-05-15T02:55:31.005Z,10.80
2018-05-15T02:57:57.490Z,10.80
2018-05-15T03:00:24.672Z,11.00
2018-05-15T03:02:51.141Z,11.00
2018-05-15T03:05:17.657Z,11.00
2018-05-15T03:07:44.351Z,11.00
2018-05-15T03:10:11.559Z,10.90
2018-05-15T03:12:38.015Z,10.90
2018-05-15T03:15:04.691Z,10.80
2018-05-15T03:17:31.146Z,10.90
2018-05-15T03:19:57.602Z,10.90
2018-05-15T03:22:24.146Z,10.90
2018-05-15T03:24:50.614Z,10.80
2018-05-15T03:27:17.842Z,10.60
2018-05-15T03:29:44.263Z,10.60
2018-05-15T03:32:10.744Z,10.60
2018-05-15T03:34:37.207Z,10.50
2018-05-15T03:37:03.677Z,10.40
2018-05-15T03:39:30.188Z,10.50
2018-05-15T03:41:56.641Z,10.60
2018-05-15T03:44:23.166Z,10.70
2018-05-15T03:46:49.609Z,10.60
2018-05-15T03:49:16.154Z,10.60
2018-05-15T03:51:43.341Z,10.40
2018-05-15T03:54:09.811Z,10.40
2018-05-15T03:56:37.015Z,10.50
2018-05-15T03:59:03.461Z,10.50
2018-05-15T04:01:42.154Z,10.60
2018-05-15T04:04:21.637Z,10.60
2018-05-15T04:07:00.427Z,10.50
2018-05-15T04:09:27.133Z,10.70
2018-05-15T04:11:53.637Z,10.70
2018-05-15T04:14:20.199Z,10.80
2018-05-15T04:16:46.656Z,10.90
2018-05-15T04:19:13.851Z,11.10
2018-05-15T04:21:40.403Z,11.10
2018-05-15T04:24:06.827Z,11.20
2018-05-15T04:26:33.293Z,11.10
2018-05-15T04:28:59.808Z,11.10
2018-05-15T04:31:26.279Z,11.10
2018-05-15T04:33:53.606Z,11.20
2018-05-15T04:36:20.066Z,11.20
2018-05-15T04:38:47.267Z,11.20
2018-05-15T04:41:13.802Z,11.20
2018-05-15T04:43:40.371Z,11.10
2018-05-15T04:46:06.817Z,11.10
2018-05-15T04:48:34.017Z,11.00
2018-05-15T04:51:00.579Z,11.00
2018-05-15T04:53:27.217Z,11.10
2018-05-15T04:55:54.469Z,11.20
2018-05-15T04:58:20.935Z,11.20
2018-05-15T05:00:48.165Z,11.60
2018-05-15T05:03:14.795Z,11.50
2018-05-15T05:05:41.771Z,11.70
2018-05-15T05:08:09.052Z,11.90
2018-05-15T05:10:35.521Z,11.90
2018-05-15T05:13:02.023Z,12.10
2018-05-15T05:15:28.585Z,12.20
2018-05-15T05:17:56.783Z,12.30
2018-05-15T05:20:23.234Z,12.40
2018-05-15T05:22:50.475Z,12.50
2018-05-15T05:25:17.677Z,12.60
2018-05-15T05:27:44.162Z,12.60
2018-05-15T05:30:11.332Z,12.70
2018-05-15T05:32:37.835Z,12.70
2018-05-15T05:35:04.337Z,12.70
2018-05-15T05:37:31.031Z,12.40
2018-05-15T05:40:05.327Z,12.40
2018-05-15T05:42:31.823Z,12.40
2018-05-15T05:44:58.302Z,12.50
2018-05-15T05:47:25.505Z,12.40
2018-05-15T05:49:52.005Z,12.40
2018-05-15T05:52:18.452Z,12.40
2018-05-15T05:54:45.105Z,12.40
2018-05-15T05:57:11.576Z,12.50
2018-05-15T05:59:38.160Z,12.50
2018-05-15T06:02:04.578Z,12.40
2018-05-15T06:04:31.809Z,12.40
2018-05-15T06:06:58.253Z,12.50
2018-05-15T06:09:25.582Z,12.50
2018-05-15T06:11:52.036Z,12.50
2018-05-15T06:14:19.281Z,12.50
2018-05-15T06:16:45.731Z,12.50
2018-05-15T06:19:12.226Z,12.60
2018-05-15T06:21:39.099Z,12.90
2018-05-15T06:24:05.630Z,13.20
2018-05-15T06:26:32.937Z,13.20
2018-05-15T06:28:59.478Z,13.20
2018-05-15T06:31:25.946Z,13.10
2018-05-15T06:33:52.413Z,13.30
2018-05-15T06:36:18.858Z,13.90
2018-05-15T06:38:45.387Z,15.70
2018-05-15T06:41:12.040Z,17.00
2018-05-15T06:43:38.560Z,17.50
2018-05-15T06:46:05.046Z,17.90
2018-05-15T06:48:32.396Z,17.50
2018-05-15T06:50:59.819Z,17.80
2018-05-15T06:53:26.289Z,17.50
2018-05-15T06:55:53.072Z,17.30
2018-05-15T06:58:20.330Z,20.30
2018-05-15T07:00:48.577Z,20.30
2018-05-15T07:03:15.102Z,19.20
2018-05-15T07:05:42.584Z,17.30
2018-05-15T07:08:09.843Z,16.60
2018-05-15T07:10:36.555Z,16.60
2018-05-15T07:13:03.312Z,16.60
2018-05-15T07:15:30.529Z,19.40
2018-05-15T07:17:56.969Z,19.40
2018-05-15T07:20:23.462Z,21.10
2018-05-15T07:22:49.928Z,21.30
2018-05-15T07:25:16.422Z,20.50
2018-05-15T07:27:42.901Z,20.30
2018-05-15T07:30:09.372Z,20.40
2018-05-15T07:32:36.637Z,20.90
2018-05-15T07:35:03.233Z,20.90
2018-05-15T07:37:29.701Z,19.70
2018-05-15T07:39:56.230Z,19.90
2018-05-15T07:42:22.709Z,19.70
2018-05-15T07:44:49.332Z,20.60
2018-05-15T07:47:15.828Z,21.00
2018-05-15T07:49:42.278Z,21.40
2018-05-15T07:52:08.736Z,22.90
2018-05-15T07:54:35.235Z,23.80
2018-05-15T07:57:02.478Z,24.80
2018-05-15T07:59:29.837Z,25.10
2018-05-15T08:01:57.162Z,24.90
2018-05-15T08:04:23.712Z,24.90
2018-05-15T08:06:50.272Z,24.80
2018-05-15T08:09:16.837Z,24.40
2018-05-15T08:11:43.749Z,24.60
2018-05-15T08:14:10.388Z,25.50
2018-05-15T08:16:37.623Z,25.80
2018-05-15T08:19:05.023Z,25.90
2018-05-15T08:21:31.512Z,25.90
2018-05-15T08:23:58.706Z,27.30
2018-05-15T08:26:25.138Z,27.20
2018-05-15T08:28:51.587Z,27.60
2018-05-15T08:31:18.173Z,26.40
2018-05-15T08:33:45.375Z,25.50
2018-05-15T08:36:11.914Z,25.50
2018-05-15T08:38:38.561Z,25.50
2018-05-15T08:41:05.073Z,24.20
2018-05-15T08:43:31.541Z,24.00
2018-05-15T08:45:58.009Z,23.90
2018-05-15T08:48:24.660Z,23.50
2018-05-15T08:50:51.218Z,22.70
2018-05-15T08:53:17.766Z,22.50
2018-05-15T08:55:44.226Z,22.10
2018-05-15T08:58:10.831Z,22.30
2018-05-15T09:00:37.279Z,22.00
2018-05-15T09:03:03.790Z,22.60
2018-05-15T09:05:30.337Z,23.40
2018-05-15T09:07:56.811Z,24.70
2018-05-15T09:10:24.111Z,22.00
2018-05-15T09:12:50.604Z,22.00
2018-05-15T09:15:17.844Z,19.80
2018-05-15T09:20:41.122Z,20.10
2018-05-15T09:23:07.574Z,20.80
2018-05-15T09:25:34.037Z,21.20
2018-05-15T09:28:00.538Z,21.50
2018-05-15T09:30:27.826Z,21.80
2018-05-15T09:32:54.352Z,21.80
2018-05-15T09:35:20.804Z,22.20
2018-05-15T09:37:47.265Z,21.90
2018-05-15T09:40:13.757Z,22.60
2018-05-15T09:42:40.245Z,23.20
2018-05-15T09:45:06.706Z,23.10
2018-05-15T09:47:33.163Z,22.90
2018-05-15T09:49:59.658Z,23.20
2018-05-15T09:52:27.080Z,24.40
2018-05-15T09:54:53.641Z,24.30
2018-05-15T09:57:21.027Z,22.50
2018-05-15T09:59:47.518Z,22.50
2018-05-15T10:02:14.744Z,20.60
2018-05-15T10:04:41.244Z,20.50
2018-05-15T10:07:07.722Z,20.90
2018-05-15T10:09:34.361Z,20.30
2018-05-15T10:12:00.789Z,20.10
2018-05-15T10:14:28.800Z,21.20
2018-05-15T10:16:56.054Z,21.30
2018-05-15T10:19:23.305Z,21.30
2018-05-15T10:21:49.964Z,21.30
2018-05-15T10:24:16.478Z,20.70
2018-05-15T10:26:43.737Z,20.40
2018-05-15T10:29:10.237Z,20.40
2018-05-15T10:31:37.057Z,21.00
2018-05-15T10:34:03.509Z,22.10
2018-05-15T10:36:30.161Z,22.20
2018-05-15T10:38:56.828Z,23.50
2018-05-15T10:41:23.292Z,23.00
2018-05-15T10:43:49.812Z,22.10
2018-05-15T10:46:17.064Z,20.60
2018-05-15T10:48:43.648Z,20.50
2018-05-15T10:51:10.206Z,20.70
2018-05-15T10:53:36.714Z,20.70
2018-05-15T10:56:11.466Z,21.50
2018-05-15T10:58:39.393Z,22.00
2018-05-15T11:01:05.935Z,22.00
2018-05-15T11:03:37.414Z,23.00
2018-05-15T11:06:05.258Z,23.80
2018-05-15T11:08:31.768Z,23.70
2018-05-15T11:10:59.973Z,23.90
2018-05-15T11:13:26.488Z,23.10
2018-05-15T11:15:53.745Z,22.50
2018-05-15T11:18:29.051Z,22.00
2018-05-15T11:21:07.697Z,21.40
2018-05-15T11:23:46.543Z,21.40
2018-05-15T11:26:13.365Z,21.20
2018-05-15T11:28:39.982Z,21.60
2018-05-15T11:31:06.519Z,22.10
2018-05-15T11:33:33.003Z,22.10
2018-05-15T11:35:59.651Z,22.10
2018-05-15T11:38:26.148Z,21.80
2018-05-15T11:40:52.663Z,20.70
2018-05-15T11:43:19.178Z,21.50
2018-05-15T11:45:46.059Z,22.00
2018-05-15T11:48:13.121Z,22.00
2018-05-15T11:50:39.983Z,22.40
2018-05-15T11:53:06.274Z,23.00
2018-05-15T11:55:35.294Z,22.90
2018-05-15T11:57:59.409Z,21.80
2018-05-15T12:00:25.857Z,21.70
2018-05-15T12:02:52.379Z,21.90
2018-05-15T12:05:18.863Z,21.70
2018-05-15T12:07:45.343Z,21.30
2018-05-15T12:10:11.922Z,21.30
2018-05-15T12:12:38.438Z,21.30
2018-05-15T12:15:05.036Z,22.20
2018-05-15T12:17:31.503Z,23.80
2018-05-15T12:19:57.984Z,24.60
2018-05-15T12:22:25.429Z,23.50
2018-05-15T12:24:51.954Z,23.20
2018-05-15T12:27:19.258Z,23.50
2018-05-15T12:29:45.977Z,24.50
2018-05-15T12:35:07.705Z,25.10
2018-05-15T12:37:34.385Z,25.40
2018-05-15T12:40:00.980Z,25.70
2018-05-15T12:42:27.486Z,26.20
2018-05-15T12:44:53.920Z,26.20
2018-05-15T12:47:20.447Z,25.50
2018-05-15T12:49:46.916Z,25.80
2018-05-15T12:52:13.478Z,26.50
2018-05-15T12:54:40.757Z,24.50
2018-05-15T12:57:07.148Z,24.50
2018-05-15T12:59:34.567Z,24.70
2018-05-15T13:02:01.057Z,25.40
2018-05-15T13:04:28.435Z,24.80
2018-05-15T13:06:54.879Z,24.80
2018-05-15T13:09:21.309Z,25.90
2018-05-15T13:11:47.773Z,25.80
2018-05-15T13:14:14.253Z,24.60
2018-05-15T13:16:40.863Z,23.40
2018-05-15T13:19:07.422Z,22.80
2018-05-15T13:21:34.599Z,22.10
2018-05-15T13:24:01.062Z,21.70
2018-05-15T13:26:27.547Z,21.60
2018-05-15T13:28:53.959Z,20.90
2018-05-15T13:31:21.130Z,20.40
2018-05-15T13:33:47.582Z,20.40
2018-05-15T13:36:14.132Z,19.70
2018-05-15T13:38:40.729Z,19.30
2018-05-15T13:41:07.225Z,18.80
2018-05-15T13:43:33.756Z,18.50
2018-05-15T13:46:00.187Z,18.30
2018-05-15T13:48:26.725Z,18.20
2018-05-15T13:50:53.105Z,17.80
2018-05-15T13:53:19.545Z,17.40
2018-05-15T13:55:45.977Z,16.90
2018-05-15T13:58:12.507Z,16.50
2018-05-15T14:00:38.950Z,15.80
2018-05-15T14:03:05.400Z,15.20
2018-05-15T14:05:31.851Z,14.80
2018-05-15T14:07:58.347Z,14.80
2018-05-15T14:10:24.796Z,14.80
2018-05-15T14:12:51.272Z,15.10
2018-05-15T14:15:18.618Z,16.30
2018-05-15T14:17:45.882Z,16.90
2018-05-15T14:20:13.076Z,17.30
2018-05-15T14:22:39.518Z,17.30
2018-05-15T14:25:06.088Z,17.60
2018-05-15T14:27:33.298Z,18.00
2018-05-15T14:29:59.729Z,18.00
2018-05-15T14:32:26.515Z,17.80
2018-05-15T14:34:53.660Z,18.30
2018-05-15T14:37:20.089Z,18.20
2018-05-15T14:39:46.573Z,18.40
2018-05-15T14:42:25.148Z,18.40
2018-05-15T14:44:52.417Z,18.10
2018-05-15T14:47:19.645Z,17.70
2018-05-15T14:49:46.115Z,17.60
2018-05-15T14:52:12.680Z,17.30
2018-05-15T14:54:39.151Z,17.30
2018-05-15T14:57:06.327Z,17.90
2018-05-15T14:59:32.792Z,17.90
2018-05-15T15:01:59.204Z,18.10
2018-05-15T15:04:25.772Z,18.30
2018-05-15T15:06:52.180Z,17.80
2018-05-15T15:09:18.744Z,17.40
2018-05-15T15:11:45.159Z,17.40
2018-05-15T15:14:11.692Z,17.50
2018-05-15T15:16:38.251Z,17.70
2018-05-15T15:19:04.808Z,17.90
2018-05-15T15:21:32.012Z,18.30
2018-05-15T15:23:58.490Z,18.30
2018-05-15T15:26:25.973Z,19.30
2018-05-15T15:28:52.561Z,19.30
2018-05-15T15:31:19.019Z,20.30
2018-05-15T15:33:46.289Z,21.10
2018-05-15T15:36:12.851Z,21.00
2018-05-15T15:38:39.344Z,21.00
2018-05-15T15:41:06.531Z,20.30
2018-05-15T15:43:33.264Z,20.30
2018-05-15T15:46:00.305Z,19.90
2018-05-15T15:48:26.844Z,19.50
2018-05-15T15:50:53.300Z,19.30
2018-05-15T15:53:19.772Z,19.10
2018-05-15T15:55:47.083Z,18.70
2018-05-15T15:58:13.760Z,18.60
2018-05-15T16:00:41.089Z,18.40
2018-05-15T16:03:07.552Z,18.40
2018-05-15T16:05:34.748Z,18.20
2018-05-15T16:08:01.284Z,18.20
2018-05-15T16:10:27.735Z,18.10
2018-05-15T16:12:54.223Z,18.00
2018-05-15T16:15:20.785Z,18.10
2018-05-15T16:17:47.307Z,18.00
2018-05-15T16:20:13.857Z,18.10
2018-05-15T16:22:40.540Z,18.00
2018-05-15T16:25:06.969Z,17.90
2018-05-15T16:27:33.510Z,18.00
2018-05-15T16:30:00.799Z,18.00
2018-05-15T16:32:34.336Z,17.90
2018-05-15T16:35:00.802Z,18.00
2018-05-15T16:37:28.764Z,17.80
2018-05-15T16:39:56.425Z,17.80
2018-05-15T16:42:22.990Z,17.80
2018-05-15T16:44:49.594Z,17.60
2018-05-15T16:47:16.029Z,17.80
2018-05-15T16:49:43.305Z,18.00
2018-05-15T16:52:09.967Z,17.90
2018-05-15T16:54:36.444Z,18.20
2018-05-15T16:57:03.086Z,18.20
2018-05-15T16:59:29.553Z,18.10
2018-05-15T17:01:56.198Z,18.00
2018-05-15T17:04:22.673Z,18.00
2018-05-15T17:06:49.276Z,17.80
2018-05-15T17:09:17.111Z,17.80
2018-05-15T17:11:44.367Z,17.60
2018-05-15T17:14:11.640Z,17.60
2018-05-15T17:16:38.403Z,17.60
2018-05-15T17:19:04.885Z,17.60
2018-05-15T17:21:31.527Z,17.40
2018-05-15T17:23:58.043Z,17.20
2018-05-15T17:26:25.368Z,17.00
2018-05-15T17:28:52.049Z,17.00
2018-05-15T17:31:19.328Z,16.80
2018-05-15T17:33:46.087Z,16.80
2018-05-15T17:36:12.684Z,16.70
2018-05-15T17:38:39.299Z,16.60
2018-05-15T17:43:39.413Z,16.50
2018-05-15T17:46:06.637Z,16.50
2018-05-15T17:48:33.281Z,16.40
2018-05-15T17:50:59.788Z,16.40
2018-05-15T17:53:26.263Z,16.40
2018-05-15T17:55:52.780Z,16.40
2018-05-15T17:58:19.273Z,16.30
2018-05-15T18:00:46.630Z,16.20
2018-05-15T18:03:13.963Z,16.20
2018-05-15T18:05:41.136Z,16.10
2018-05-15T18:08:07.559Z,16.10
2018-05-15T18:10:34.807Z,16.00
2018-05-15T18:13:01.949Z,15.90
2018-05-15T18:15:29.250Z,15.80
2018-05-15T18:17:55.819Z,15.80
2018-05-15T18:20:23.611Z,15.70
2018-05-15T18:22:50.196Z,15.50
2018-05-15T18:25:16.796Z,15.40
2018-05-15T18:27:43.282Z,15.20
2018-05-15T18:30:09.837Z,15.10
2018-05-15T18:32:37.192Z,14.80
2018-05-15T18:35:04.565Z,14.70
2018-05-15T18:37:31.035Z,14.60
2018-05-15T18:39:57.643Z,14.60
2018-05-15T18:42:24.328Z,14.60
2018-05-15T18:44:50.975Z,14.50
2018-05-15T18:47:17.493Z,14.40
2018-05-15T18:49:43.949Z,14.40
2018-05-15T18:52:10.470Z,14.40
2018-05-15T18:54:36.952Z,14.30
2018-05-15T18:57:03.540Z,14.30
2018-05-15T18:59:30.061Z,14.20
2018-05-15T19:01:56.652Z,14.10
2018-05-15T19:04:23.124Z,14.10
2018-05-15T19:06:49.807Z,14.10
2018-05-15T19:09:18.327Z,14.00
2018-05-15T19:11:44.890Z,14.00
2018-05-15T19:14:11.344Z,14.00
2018-05-15T19:16:38.145Z,13.80
2018-05-15T19:19:05.644Z,13.80
2018-05-15T19:21:33.273Z,13.70
2018-05-15T19:23:59.806Z,13.70
2018-05-15T19:26:26.334Z,13.70
2018-05-15T19:28:56.003Z,13.70
2018-05-15T19:31:28.730Z,13.70
2018-05-15T19:33:55.275Z,13.70
2018-05-15T19:36:27.829Z,13.70
2018-05-15T19:39:00.771Z,13.70
2018-05-15T19:41:27.220Z,13.60
2018-05-15T19:43:53.753Z,13.60
2018-05-15T19:46:20.242Z,13.60
2018-05-15T19:48:46.818Z,13.50
2018-05-15T19:51:13.511Z,13.50
2018-05-15T19:53:40.205Z,13.50
2018-05-15T19:56:06.736Z,13.30
2018-05-15T19:58:33.298Z,13.20
2018-05-15T20:00:59.954Z,13.30
2018-05-15T20:03:26.478Z,13.20
2018-05-15T20:05:52.961Z,13.20
2018-05-15T20:08:21.172Z,13.30
2018-05-15T20:10:50.379Z,13.30
2018-05-15T20:13:16.843Z,13.30
2018-05-15T20:15:43.390Z,13.20
2018-05-15T20:18:10.834Z,13.00
2018-05-15T20:20:38.233Z,12.90
2018-05-15T20:23:04.737Z,12.80
2018-05-15T20:25:31.989Z,12.90
2018-05-15T20:27:59.277Z,13.00
2018-05-15T20:30:25.884Z,13.00
2018-05-15T20:32:53.140Z,13.10
2018-05-15T20:35:20.385Z,13.10
2018-05-15T20:37:47.810Z,13.00
2018-05-15T20:40:14.297Z,13.00
2018-05-15T20:42:40.810Z,12.70
2018-05-15T20:45:08.069Z,12.70
2018-05-15T20:47:34.916Z,12.70
2018-05-15T20:50:01.548Z,12.80
2018-05-15T20:52:28.055Z,12.90
2018-05-15T20:54:54.604Z,12.90
2018-05-15T20:57:21.845Z,12.80
2018-05-15T20:59:48.332Z,12.80
2018-05-15T21:02:14.873Z,12.80
2018-05-15T21:04:41.371Z,12.80
2018-05-15T21:07:07.879Z,12.80
2018-05-15T21:09:34.338Z,12.80
2018-05-15T21:12:00.840Z,12.70
2018-05-15T21:14:27.333Z,12.60
2018-05-15T21:16:53.838Z,12.60
2018-05-15T21:19:21.087Z,12.60
2018-05-15T21:21:48.512Z,12.60
2018-05-15T21:24:14.986Z,12.60
2018-05-15T21:26:41.442Z,12.60
2018-05-15T21:29:08.250Z,12.60
2018-05-15T21:31:35.518Z,12.80
2018-05-15T21:34:01.972Z,12.80
2018-05-15T21:36:28.461Z,12.90
2018-05-15T21:38:54.932Z,12.90
2018-05-15T21:41:21.485Z,12.90
2018-05-15T21:43:48.852Z,12.90
2018-05-15T21:46:15.325Z,12.90
2018-05-15T21:48:42.570Z,12.80
2018-05-15T21:51:09.869Z,12.80
2018-05-15T21:53:36.460Z,12.80
2018-05-15T21:56:03.744Z,12.90
2018-05-15T21:58:30.177Z,12.80
2018-05-15T22:00:56.688Z,12.90
2018-05-15T22:06:18.911Z,13.00
2018-05-15T22:08:45.702Z,13.00
2018-05-15T22:11:13.769Z,12.90
2018-05-15T22:13:53.148Z,13.00
2018-05-15T22:16:31.904Z,12.90
2018-05-15T22:19:10.628Z,13.00
2018-05-15T22:21:49.275Z,12.90
2018-05-15T22:24:25.639Z,13.00
2018-05-15T22:26:52.298Z,13.00
2018-05-15T22:29:18.781Z,13.00
2018-05-15T22:31:45.419Z,12.90
2018-05-15T22:34:11.968Z,12.90
2018-05-15T22:36:39.219Z,12.90
2018-05-15T22:39:06.478Z,12.80
2018-05-15T22:41:33.806Z,12.80
2018-05-15T22:44:00.568Z,12.80
2018-05-15T22:46:27.981Z,12.70
2018-05-15T22:48:54.494Z,12.70
2018-05-15T22:51:21.006Z,12.70
2018-05-15T22:53:47.500Z,12.60
2018-05-15T22:56:14.269Z,12.70
2018-05-15T22:58:41.566Z,12.60
2018-05-15T23:01:08.032Z,12.60
2018-05-15T23:03:34.797Z,12.60
2018-05-15T23:06:01.233Z,12.60
2018-05-15T23:08:28.553Z,12.60
2018-05-15T23:10:55.078Z,12.60
2018-05-15T23:13:21.558Z,12.60
2018-05-15T23:15:48.857Z,12.60
2018-05-15T23:18:15.358Z,12.50
2018-05-15T23:20:41.934Z,12.70
2018-05-15T23:23:08.379Z,12.70
2018-05-15T23:25:34.885Z,12.70
2018-05-15T23:28:01.383Z,12.70
2018-05-15T23:30:28.001Z,12.60
2018-05-15T23:32:54.475Z,12.50
2018-05-15T23:35:20.948Z,12.40
2018-05-15T23:37:47.368Z,12.30
2018-05-15T23:40:13.992Z,12.30
2018-05-15T23:42:40.438Z,12.20
2018-05-15T23:45:06.926Z,12.20
2018-05-15T23:47:33.405Z,12.20
2018-05-15T23:49:59.912Z,12.20
2018-05-15T23:52:26.425Z,12.20
2018-05-15T23:54:53.668Z,12.20
2018-05-15T23:57:20.882Z,12.10
2018-05-15T23:59:47.562Z,12.10
